createdAt,value
2019-06-29T00:00:23.300Z,2.20
2019-06-29T00:02:51.760Z,2.30
2019-06-29T00:05:20.209Z,2.10
2019-06-29T00:07:48.645Z,1.98
2019-06-29T00:10:17.224Z,1.80
2019-06-29T00:12:45.620Z,1.82
2019-06-29T00:15:14.270Z,1.85
2019-06-29T00:17:42.706Z,2.02
2019-06-29T00:20:11.280Z,2.12
2019-06-29T00:22:39.746Z,1.95
2019-06-29T00:25:08.997Z,2.33
2019-06-29T00:27:37.400Z,1.95
2019-06-29T00:30:07.740Z,2.05
2019-06-29T00:32:36.152Z,2.02
2019-06-29T00:35:04.984Z,1.75
2019-06-29T00:37:33.061Z,1.80
2019-06-29T00:40:01.462Z,2.00
2019-06-29T00:42:29.879Z,1.65
2019-06-29T00:44:58.297Z,1.98
2019-06-29T00:47:26.797Z,1.67
2019-06-29T00:49:55.193Z,1.92
2019-06-29T00:52:23.605Z,2.42
2019-06-29T00:54:51.684Z,1.70
2019-06-29T00:57:20.097Z,2.12
2019-06-29T00:59:48.628Z,2.25
2019-06-29T01:02:17.044Z,2.20
2019-06-29T01:04:45.438Z,2.05
2019-06-29T01:07:13.861Z,1.87
2019-06-29T01:09:42.265Z,1.70
2019-06-29T01:12:30.013Z,1.55
2019-06-29T01:14:58.422Z,1.65
2019-06-29T01:17:26.829Z,2.37
2019-06-29T01:19:55.402Z,1.60
2019-06-29T01:22:23.810Z,1.87
2019-06-29T01:24:52.378Z,1.90
2019-06-29T01:27:20.789Z,1.75
2019-06-29T01:29:49.248Z,1.70
2019-06-29T01:32:17.687Z,2.05
2019-06-29T01:34:46.357Z,1.85
2019-06-29T01:37:14.769Z,1.87
2019-06-29T01:39:42.836Z,2.08
2019-06-29T01:42:10.924Z,1.65
2019-06-29T01:44:39.320Z,1.95
2019-06-29T01:47:07.735Z,1.80
2019-06-29T01:49:36.134Z,1.90
2019-06-29T01:52:04.813Z,1.77
2019-06-29T01:54:33.213Z,2.00
2019-06-29T01:57:01.773Z,1.50
2019-06-29T01:59:30.172Z,2.00
2019-06-29T02:01:58.769Z,2.30
2019-06-29T02:04:27.176Z,1.98
2019-06-29T02:06:55.580Z,2.17
2019-06-29T02:09:23.992Z,2.40
2019-06-29T02:11:52.470Z,1.65
2019-06-29T02:14:20.996Z,1.90
2019-06-29T02:16:49.393Z,2.12
2019-06-29T02:19:17.809Z,1.95
2019-06-29T02:21:46.214Z,1.90
2019-06-29T02:24:14.625Z,1.65
2019-06-29T02:26:44.673Z,1.52
2019-06-29T02:29:13.154Z,1.75
2019-06-29T02:31:41.626Z,1.70
2019-06-29T02:34:10.110Z,1.50
2019-06-29T02:36:38.509Z,1.80
2019-06-29T02:39:06.795Z,1.77
2019-06-29T02:41:35.189Z,2.08
2019-06-29T02:44:03.664Z,2.08
2019-06-29T02:46:32.089Z,1.92
2019-06-29T02:49:00.502Z,1.85
2019-06-29T02:51:28.902Z,2.20
2019-06-29T02:53:57.309Z,3.47
2019-06-29T02:56:25.713Z,1.72
2019-06-29T02:58:54.125Z,1.92
2019-06-29T03:01:22.519Z,2.42
2019-06-29T03:03:50.933Z,1.80
2019-06-29T03:06:19.333Z,1.92
2019-06-29T03:08:47.921Z,1.82
2019-06-29T03:11:15.981Z,2.08
2019-06-29T03:13:44.400Z,1.90
2019-06-29T03:16:12.805Z,2.10
2019-06-29T03:18:41.222Z,1.98
2019-06-29T03:21:09.302Z,1.75
2019-06-29T03:23:37.718Z,1.65
2019-06-29T03:26:06.124Z,2.05
2019-06-29T03:28:34.538Z,1.75
2019-06-29T03:31:02.937Z,1.85
2019-06-29T03:33:31.350Z,1.87
2019-06-29T03:35:59.756Z,2.25
2019-06-29T03:38:28.158Z,1.62
2019-06-29T03:40:56.238Z,1.60
2019-06-29T03:43:24.662Z,1.82
2019-06-29T03:45:53.065Z,1.75
2019-06-29T03:48:21.460Z,2.15
2019-06-29T03:50:49.908Z,1.87
2019-06-29T03:53:18.308Z,2.05
2019-06-29T03:55:46.720Z,2.40
2019-06-29T03:58:15.122Z,2.33
2019-06-29T04:00:45.070Z,2.55
2019-06-29T04:03:19.673Z,2.10
2019-06-29T04:05:51.152Z,2.37
2019-06-29T04:08:43.994Z,2.22
2019-06-29T04:11:42.645Z,2.60
2019-06-29T04:14:33.426Z,1.90
2019-06-29T04:17:03.544Z,1.90
2019-06-29T04:19:51.544Z,2.30
2019-06-29T04:22:23.033Z,2.25
2019-06-29T04:25:09.358Z,2.10
2019-06-29T04:27:43.681Z,1.50
2019-06-29T04:30:32.936Z,1.72
2019-06-29T04:33:19.225Z,1.82
2019-06-29T04:36:24.147Z,1.80
2019-06-29T04:39:01.717Z,1.80
2019-06-29T04:41:59.061Z,1.82
2019-06-29T04:44:27.478Z,1.82
2019-06-29T04:46:55.892Z,1.62
2019-06-29T04:49:23.996Z,1.95
2019-06-29T04:51:52.405Z,1.82
2019-06-29T04:54:20.827Z,2.00
2019-06-29T04:56:48.952Z,2.05
2019-06-29T04:59:17.938Z,1.65
2019-06-29T05:01:46.333Z,2.50
2019-06-29T05:04:14.736Z,1.52
2019-06-29T05:06:43.142Z,1.87
2019-06-29T05:09:11.559Z,1.90
2019-06-29T05:11:39.962Z,1.80
2019-06-29T05:14:08.390Z,2.22
2019-06-29T05:16:36.851Z,2.02
2019-06-29T05:19:05.259Z,1.98
2019-06-29T05:21:33.669Z,2.00
2019-06-29T05:24:02.084Z,1.75
2019-06-29T05:26:30.653Z,2.08
2019-06-29T05:28:59.465Z,2.00
2019-06-29T05:31:27.870Z,1.90
2019-06-29T05:33:56.286Z,1.80
2019-06-29T05:36:24.759Z,1.70
2019-06-29T05:38:53.318Z,1.32
2019-06-29T05:41:21.725Z,1.52
2019-06-29T05:43:50.137Z,1.70
2019-06-29T05:46:18.540Z,2.00
2019-06-29T05:48:46.953Z,2.08
2019-06-29T05:51:15.349Z,1.90
2019-06-29T05:53:43.761Z,1.77
2019-06-29T05:56:12.169Z,1.72
2019-06-29T05:58:40.589Z,1.85
2019-06-29T06:01:08.985Z,1.70
2019-06-29T06:03:37.377Z,1.82
2019-06-29T06:06:05.788Z,2.08
2019-06-29T06:08:34.189Z,1.92
2019-06-29T06:11:02.566Z,1.72
2019-06-29T06:13:31.152Z,1.50
2019-06-29T06:15:59.556Z,1.32
2019-06-29T06:18:46.961Z,1.60
2019-06-29T06:21:15.372Z,1.37
2019-06-29T06:23:43.777Z,1.52
2019-06-29T06:26:11.865Z,1.47
2019-06-29T06:28:40.260Z,1.37
2019-06-29T06:31:08.736Z,1.50
2019-06-29T06:33:37.136Z,1.25
2019-06-29T06:36:05.552Z,1.25
2019-06-29T06:38:33.634Z,1.32
2019-06-29T06:41:02.040Z,1.45
2019-06-29T06:43:30.436Z,1.95
2019-06-29T06:45:58.857Z,1.40
2019-06-29T06:48:27.263Z,1.40
2019-06-29T06:50:55.670Z,1.32
2019-06-29T06:53:24.073Z,1.82
2019-06-29T06:55:52.481Z,1.25
2019-06-29T06:58:20.880Z,1.50
2019-06-29T07:00:49.313Z,1.40
2019-06-29T07:03:17.718Z,1.40
2019-06-29T07:05:46.169Z,1.55
2019-06-29T07:08:14.236Z,1.45
2019-06-29T07:10:42.654Z,1.60
2019-06-29T07:13:11.056Z,1.50
2019-06-29T07:15:40.864Z,1.52
2019-06-29T07:18:09.270Z,1.27
2019-06-29T07:20:37.812Z,1.12
2019-06-29T07:23:08.701Z,1.25
2019-06-29T07:25:36.364Z,1.22
2019-06-29T07:28:06.460Z,1.27
2019-06-29T07:30:35.216Z,1.62
2019-06-29T07:33:03.623Z,1.22
2019-06-29T07:35:32.033Z,1.10
2019-06-29T07:38:00.433Z,1.10
2019-06-29T07:40:28.845Z,1.40
2019-06-29T07:42:57.241Z,1.45
2019-06-29T07:45:36.283Z,1.52
2019-06-29T07:48:06.707Z,1.32
2019-06-29T07:50:52.911Z,1.40
2019-06-29T07:53:11.708Z,1.25
2019-06-29T07:55:43.201Z,1.00
2019-06-29T07:58:21.433Z,1.27
2019-06-29T08:00:41.860Z,1.70
2019-06-29T08:03:10.281Z,1.07
2019-06-29T08:05:38.758Z,1.20
2019-06-29T08:08:06.820Z,1.50
2019-06-29T08:10:35.268Z,1.30
2019-06-29T08:13:03.339Z,1.32
2019-06-29T08:15:31.737Z,1.37
2019-06-29T08:18:00.158Z,1.40
2019-06-29T08:20:28.572Z,1.05
2019-06-29T08:22:56.990Z,1.27
2019-06-29T08:25:25.871Z,1.27
2019-06-29T08:27:54.523Z,1.20
2019-06-29T08:30:32.109Z,1.15
2019-06-29T08:33:00.517Z,0.82
2019-06-29T08:35:28.924Z,1.20
2019-06-29T08:37:57.506Z,1.20
2019-06-29T08:40:25.575Z,1.30
2019-06-29T08:42:53.840Z,0.98
2019-06-29T08:45:22.376Z,0.88
2019-06-29T08:47:50.793Z,1.35
2019-06-29T08:50:19.848Z,1.10
2019-06-29T08:52:48.256Z,1.00
2019-06-29T08:55:16.708Z,1.35
2019-06-29T08:57:45.157Z,1.05
2019-06-29T09:00:15.369Z,1.20
2019-06-29T09:02:43.785Z,1.17
2019-06-29T09:05:12.194Z,1.12
2019-06-29T09:07:40.608Z,1.30
2019-06-29T09:10:09.378Z,1.40
2019-06-29T09:16:09.581Z,1.20
2019-06-29T09:22:51.997Z,1.10
2019-06-29T09:29:09.602Z,1.00
2019-06-29T09:42:06.651Z,1.05
2019-06-29T09:57:19.646Z,0.90
2019-06-29T10:31:46.265Z,0.98
2019-06-29T10:34:39.449Z,1.22
2019-06-29T10:36:57.928Z,1.20
2019-06-29T10:42:58.054Z,1.10
2019-06-29T10:49:07.511Z,1.25
2019-06-29T10:58:42.271Z,1.10
2019-06-29T11:01:12.532Z,0.93
2019-06-29T11:03:42.049Z,1.25
2019-06-29T11:06:15.041Z,1.20
2019-06-29T11:08:43.152Z,1.20
2019-06-29T11:11:11.709Z,3.30
2019-06-29T11:13:43.058Z,1.30
2019-06-29T11:16:12.850Z,1.20
2019-06-29T11:18:42.756Z,1.10
2019-06-29T11:21:12.663Z,1.30
2019-06-29T11:23:41.066Z,1.12
2019-06-29T11:26:09.501Z,1.02
2019-06-29T11:28:42.482Z,1.07
2019-06-29T11:31:15.312Z,1.30
2019-06-29T11:33:43.034Z,1.07
2019-06-29T11:36:09.992Z,1.05
2019-06-29T11:38:38.485Z,0.88
2019-06-29T11:41:06.890Z,1.07
2019-06-29T11:43:35.296Z,1.10
2019-06-29T11:46:03.693Z,0.90
2019-06-29T11:48:31.773Z,0.90
2019-06-29T11:51:02.028Z,1.10
2019-06-29T11:53:31.481Z,0.90
2019-06-29T11:56:02.217Z,0.98
2019-06-29T11:58:32.466Z,0.80
2019-06-29T12:01:01.842Z,1.10
2019-06-29T12:03:32.739Z,1.00
2019-06-29T12:06:03.115Z,0.70
2019-06-29T12:08:32.714Z,0.90
2019-06-29T12:11:02.508Z,1.00
2019-06-29T12:13:32.070Z,1.20
2019-06-29T12:16:02.416Z,0.72
2019-06-29T12:18:30.864Z,1.00
2019-06-29T12:21:02.069Z,1.12
2019-06-29T12:23:32.424Z,1.22
2019-06-29T12:26:01.701Z,1.10
2019-06-29T12:28:32.230Z,1.10
2019-06-29T12:31:07.726Z,0.90
2019-06-29T12:33:31.470Z,1.15
2019-06-29T12:36:01.887Z,1.10
2019-06-29T12:38:30.116Z,1.30
2019-06-29T12:40:58.524Z,1.25
2019-06-29T12:43:26.924Z,1.10
2019-06-29T12:45:55.342Z,1.00
2019-06-29T12:48:23.737Z,1.07
2019-06-29T12:50:52.152Z,1.00
2019-06-29T12:53:22.849Z,1.07
2019-06-29T12:56:10.025Z,1.17
2019-06-29T12:58:38.420Z,1.00
2019-06-29T13:01:19.377Z,1.00
2019-06-29T13:03:36.620Z,1.00
2019-06-29T13:06:05.112Z,0.70
2019-06-29T13:08:33.517Z,0.78
2019-06-29T13:11:01.595Z,1.00
2019-06-29T13:13:29.997Z,1.12
2019-06-29T13:15:58.413Z,0.82
2019-06-29T13:18:26.814Z,1.22
2019-06-29T13:20:55.225Z,1.17
2019-06-29T13:23:23.625Z,1.50
2019-06-29T13:25:52.035Z,1.10
2019-06-29T13:28:20.441Z,1.10
2019-06-29T13:30:48.933Z,1.00
2019-06-29T13:33:17.328Z,1.20
2019-06-29T13:35:45.841Z,1.20
2019-06-29T13:38:14.244Z,1.27
2019-06-29T13:40:42.660Z,1.20
2019-06-29T13:43:11.074Z,1.22
2019-06-29T13:45:39.480Z,1.32
2019-06-29T13:48:07.880Z,1.32
2019-06-29T13:50:36.333Z,0.88
2019-06-29T13:53:04.742Z,1.00
2019-06-29T13:55:33.217Z,1.20
2019-06-29T13:58:01.682Z,1.20
2019-06-29T14:00:30.466Z,1.05
2019-06-29T14:02:58.865Z,1.00
2019-06-29T14:05:27.425Z,1.35
2019-06-29T14:07:55.817Z,1.12
2019-06-29T14:10:24.743Z,1.17
2019-06-29T14:12:53.215Z,1.42
2019-06-29T14:15:21.625Z,1.37
2019-06-29T14:17:50.093Z,1.30
2019-06-29T14:20:19.145Z,1.10
2019-06-29T14:22:49.182Z,1.20
2019-06-29T14:25:17.695Z,1.37
2019-06-29T14:27:46.097Z,1.30
2019-06-29T14:30:15.595Z,1.77
2019-06-29T14:32:45.584Z,1.75
2019-06-29T14:35:15.476Z,1.42
2019-06-29T14:37:44.049Z,1.42
2019-06-29T14:40:12.888Z,1.00
2019-06-29T14:42:41.306Z,1.62
2019-06-29T14:45:09.541Z,1.25
2019-06-29T14:47:38.052Z,1.67
2019-06-29T14:50:07.213Z,1.47
2019-06-29T14:52:35.628Z,1.20
2019-06-29T14:55:05.072Z,1.40
2019-06-29T14:57:33.557Z,1.70
2019-06-29T15:00:02.076Z,1.37
2019-06-29T15:02:31.089Z,1.25
2019-06-29T15:04:59.815Z,1.17
2019-06-29T15:07:28.223Z,1.47
2019-06-29T15:09:56.622Z,0.98
2019-06-29T15:12:25.033Z,1.30
2019-06-29T15:14:53.438Z,1.10
2019-06-29T15:17:21.517Z,1.20
2019-06-29T15:19:49.917Z,1.27
2019-06-29T15:22:21.392Z,1.40
2019-06-29T15:24:48.457Z,1.55
2019-06-29T15:27:16.542Z,1.25
2019-06-29T15:29:44.960Z,1.37
2019-06-29T15:32:13.377Z,1.32
2019-06-29T15:34:41.786Z,1.10
2019-06-29T15:37:10.207Z,1.37
2019-06-29T15:39:38.597Z,1.10
2019-06-29T15:42:07.008Z,1.10
2019-06-29T15:44:35.413Z,1.20
2019-06-29T15:47:06.614Z,1.12
2019-06-29T15:49:33.618Z,1.07
2019-06-29T15:55:33.719Z,1.10
2019-06-29T16:08:01.396Z,1.10
2019-06-29T16:14:10.684Z,1.20
2019-06-29T16:16:39.089Z,1.00
2019-06-29T16:19:07.502Z,1.22
2019-06-29T16:21:35.903Z,1.20
2019-06-29T16:24:04.338Z,1.10
2019-06-29T16:26:33.039Z,1.07
2019-06-29T16:29:01.456Z,1.10
2019-06-29T16:31:29.871Z,1.10
2019-06-29T16:33:58.368Z,1.10
2019-06-29T16:36:26.833Z,1.25
2019-06-29T16:38:55.258Z,0.93
2019-06-29T16:41:23.668Z,0.90
2019-06-29T16:43:52.101Z,1.00
2019-06-29T16:46:20.246Z,0.88
2019-06-29T16:48:48.661Z,1.00
2019-06-29T16:51:17.069Z,1.10
2019-06-29T16:53:45.474Z,1.00
2019-06-29T16:56:13.931Z,1.20
2019-06-29T16:58:42.344Z,1.00
2019-06-29T17:01:10.732Z,0.80
2019-06-29T17:03:39.915Z,1.00
2019-06-29T17:06:08.332Z,0.90
2019-06-29T17:08:36.741Z,0.93
2019-06-29T17:11:05.141Z,1.10
2019-06-29T17:13:33.558Z,0.90
2019-06-29T17:16:01.970Z,0.75
2019-06-29T17:18:30.573Z,1.05
2019-06-29T17:20:59.237Z,0.93
2019-06-29T17:23:27.307Z,1.00
2019-06-29T17:25:55.729Z,1.00
2019-06-29T17:28:24.308Z,0.93
2019-06-29T17:30:52.713Z,1.17
2019-06-29T17:33:21.130Z,0.90
2019-06-29T17:35:49.666Z,1.07
2019-06-29T17:38:18.252Z,1.25
2019-06-29T17:40:46.670Z,0.80
2019-06-29T17:43:15.076Z,1.00
2019-06-29T17:45:43.488Z,1.20
2019-06-29T17:48:11.893Z,0.80
2019-06-29T17:50:40.938Z,0.88
2019-06-29T17:53:09.581Z,1.30
2019-06-29T17:55:37.993Z,0.90
2019-06-29T17:58:06.401Z,0.90
2019-06-29T18:00:34.893Z,1.00
2019-06-29T18:03:03.371Z,0.90
2019-06-29T18:05:31.824Z,0.80
2019-06-29T18:08:00.234Z,1.00
2019-06-29T18:10:28.815Z,1.12
2019-06-29T18:12:57.220Z,0.90
2019-06-29T18:15:25.810Z,1.00
2019-06-29T18:17:54.207Z,0.90
2019-06-29T18:20:22.929Z,0.82
2019-06-29T18:22:51.330Z,0.98
2019-06-29T18:25:19.925Z,0.90
2019-06-29T18:27:48.313Z,1.20
2019-06-29T18:30:16.664Z,0.95
2019-06-29T18:32:45.075Z,0.90
2019-06-29T18:35:13.557Z,1.00
2019-06-29T18:37:41.659Z,1.02
2019-06-29T18:40:11.808Z,0.93
2019-06-29T18:42:40.233Z,1.00
2019-06-29T18:45:09.100Z,0.93
2019-06-29T18:47:37.565Z,0.93
2019-06-29T18:50:10.174Z,1.20
2019-06-29T18:52:38.520Z,0.90
2019-06-29T18:55:07.560Z,0.90
2019-06-29T18:57:36.074Z,1.12
2019-06-29T19:00:04.960Z,0.90
2019-06-29T19:02:33.372Z,0.90
2019-06-29T19:05:01.814Z,1.17
2019-06-29T19:07:30.436Z,0.90
2019-06-29T19:09:59.002Z,1.27
2019-06-29T19:12:27.424Z,1.20
2019-06-29T19:14:55.492Z,1.07
2019-06-29T19:17:42.933Z,0.93
2019-06-29T19:20:11.781Z,0.90
2019-06-29T19:22:40.193Z,1.27
2019-06-29T19:25:09.533Z,1.00
2019-06-29T19:27:37.950Z,1.00
2019-06-29T19:30:10.217Z,1.15
2019-06-29T19:32:38.639Z,0.90
2019-06-29T19:35:06.980Z,1.17
2019-06-29T19:37:36.235Z,1.10
2019-06-29T19:40:09.628Z,1.12
2019-06-29T19:42:38.317Z,1.15
2019-06-29T19:45:07.561Z,1.10
2019-06-29T19:47:35.972Z,1.32
2019-06-29T19:50:07.268Z,1.05
2019-06-29T19:52:35.748Z,1.00
2019-06-29T19:55:05.095Z,1.10
2019-06-29T19:57:33.510Z,1.27
2019-06-29T20:00:02.182Z,1.10
2019-06-29T20:02:30.679Z,1.20
2019-06-29T20:05:11.802Z,1.30
2019-06-29T20:07:29.223Z,1.20
2019-06-29T20:09:57.280Z,1.52
2019-06-29T20:12:25.709Z,1.40
2019-06-29T20:14:54.109Z,1.37
2019-06-29T20:17:22.520Z,1.47
2019-06-29T20:19:50.928Z,2.02
2019-06-29T20:22:19.341Z,1.35
2019-06-29T20:24:47.740Z,1.37
2019-06-29T20:27:15.828Z,1.70
2019-06-29T20:29:44.221Z,2.80
2019-06-29T20:32:12.300Z,1.85
2019-06-29T20:34:40.713Z,1.77
2019-06-29T20:37:09.125Z,1.40
2019-06-29T20:39:37.550Z,1.82
2019-06-29T20:42:05.945Z,1.90
2019-06-29T20:44:34.381Z,1.85
2019-06-29T20:47:02.854Z,1.70
2019-06-29T20:49:31.265Z,1.90
2019-06-29T20:51:59.808Z,1.67
2019-06-29T20:54:28.208Z,1.50
2019-06-29T20:56:56.712Z,1.67
2019-06-29T20:59:25.116Z,1.80
2019-06-29T21:01:53.526Z,1.92
2019-06-29T21:04:21.924Z,2.10
2019-06-29T21:06:50.328Z,2.02
2019-06-29T21:09:18.424Z,2.15
2019-06-29T21:11:46.824Z,2.10
2019-06-29T21:14:15.708Z,2.10
2019-06-29T21:16:44.108Z,1.98
2019-06-29T21:19:12.528Z,22.80
2019-06-29T21:21:40.608Z,14.55
2019-06-29T21:24:09.033Z,15.80
2019-06-29T21:26:37.433Z,6.55
2019-06-29T21:29:06.116Z,2.90
2019-06-29T21:31:34.532Z,2.50
2019-06-29T21:34:02.950Z,2.42
2019-06-29T21:36:31.361Z,2.10
2019-06-29T21:38:59.870Z,2.45
2019-06-29T21:41:28.277Z,2.25
2019-06-29T21:43:56.682Z,3.55
2019-06-29T21:46:24.755Z,4.05
2019-06-29T21:48:53.161Z,2.80
2019-06-29T21:51:21.562Z,2.95
2019-06-29T21:53:49.976Z,2.77
2019-06-29T21:56:18.380Z,3.30
2019-06-29T21:58:46.793Z,2.15
2019-06-29T22:01:15.261Z,2.62
2019-06-29T22:03:43.701Z,2.83
2019-06-29T22:06:21.404Z,2.80
2019-06-29T22:08:42.237Z,2.75
2019-06-29T22:11:10.632Z,3.30
2019-06-29T22:13:38.721Z,2.20
2019-06-29T22:16:06.799Z,2.67
2019-06-29T22:18:35.196Z,3.17
2019-06-29T22:21:03.592Z,2.80
2019-06-29T22:23:32.010Z,2.72
2019-06-29T22:26:00.410Z,2.67
2019-06-29T22:28:28.820Z,2.85
2019-06-29T22:30:57.222Z,2.72
2019-06-29T22:33:25.630Z,2.58
2019-06-29T22:35:54.241Z,2.80
2019-06-29T22:38:22.645Z,2.35
2019-06-29T22:40:51.045Z,2.22
2019-06-29T22:43:19.453Z,2.40
2019-06-29T22:45:47.672Z,2.33
2019-06-29T22:48:16.343Z,2.40
2019-06-29T22:50:44.849Z,2.52
2019-06-29T22:53:13.253Z,2.40
2019-06-29T22:55:41.770Z,2.30
2019-06-29T22:58:10.198Z,2.70
2019-06-29T23:00:38.618Z,3.17
2019-06-29T23:03:13.172Z,2.30
2019-06-29T23:05:36.827Z,2.42
2019-06-29T23:08:05.223Z,2.12
2019-06-29T23:10:33.649Z,2.50
2019-06-29T23:13:02.037Z,1.87
2019-06-29T23:15:30.467Z,2.10
2019-06-29T23:17:58.546Z,2.17
2019-06-29T23:20:27.124Z,2.17
2019-06-29T23:22:55.523Z,2.05
2019-06-29T23:25:23.932Z,2.42
2019-06-29T23:27:52.000Z,2.10
2019-06-29T23:30:21.976Z,2.25
2019-06-29T23:32:50.392Z,2.08
2019-06-29T23:35:19.160Z,2.02
2019-06-29T23:37:47.557Z,1.95
2019-06-29T23:40:16.710Z,1.90
2019-06-29T23:42:45.108Z,1.98
2019-06-29T23:45:14.065Z,1.72
2019-06-29T23:47:42.469Z,2.17
2019-06-29T23:50:11.421Z,1.75
2019-06-29T23:52:39.818Z,1.95
2019-06-29T23:55:08.768Z,2.22
2019-06-29T23:57:36.836Z,2.22
